Time;durP1;ratioP1;P1;durP2;ratioP2;P2;SDS_P1;SDS_P2;PMS_P1;PMS_P2;Temp;Humidity;BMP_temperature;BMP_pressure;BME280_temperature;BME280_humidity;BME280_pressure;Samples;Min_cycle;Max_cycle;Signal;HPM_P1;HPM_P2
2022/10/04 00:01:29;;;;;;;10.75;6.32;;;;;;;;;;5027535;28;20392;-66
2022/10/04 00:04:24;;;;;;;15.65;6.10;;;;;;;;;;5027320;28;20029;-67
2022/10/04 00:07:07;;;;;;;13.43;7.57;;;;;;;;;;5012464;28;20530;-66
2022/10/04 00:09:46;;;;;;;12.55;6.15;;;;;;;;;;5056484;28;20242;-66
2022/10/04 00:12:29;;;;;;;18.15;7.00;;;;;;;;;;5067179;28;20525;-66
2022/10/04 00:15:01;;;;;;;10.82;5.90;;;;;;;;;;5067595;28;20032;-66
2022/10/04 00:17:30;;;;;;;15.82;6.57;;;;;;;;;;5021081;28;20029;-66
2022/10/04 00:19:57;;;;;;;11.98;6.57;;;;;;;;;;5009897;28;20025;-67
2022/10/04 00:22:24;;;;;;;10.57;5.82;;;;;;;;;;5025321;28;20573;-66
2022/10/04 00:25:05;;;;;;;12.98;6.65;;;;;;;;;;5024659;28;20030;-66
2022/10/04 00:27:31;;;;;;;11.23;6.45;;;;;;;;;;5026154;28;20041;-66
2022/10/04 00:30:02;;;;;;;13.48;6.90;;;;;;;;;;5025690;28;20124;-66
2022/10/04 00:32:39;;;;;;;13.60;6.32;;;;;;;;;;5026187;28;20037;-66
2022/10/04 00:35:23;;;;;;;13.15;6.35;;;;;;;;;;5026576;28;20076;-66
2022/10/04 00:37:58;;;;;;;15.90;7.00;;;;;;;;;;5026351;28;20049;-66
2022/10/04 00:40:27;;;;;;;14.25;6.68;;;;;;;;;;5041768;28;20075;-66
2022/10/04 00:43:03;;;;;;;10.48;5.88;;;;;;;;;;5044076;28;20621;-66
2022/10/04 00:45:45;;;;;;;16.90;6.65;;;;;;;;;;5027220;28;20580;-66
2022/10/04 00:48:25;;;;;;;13.40;6.53;;;;;;;;;;5027512;28;20121;-67
2022/10/04 00:51:02;;;;;;;12.75;6.70;;;;;;;;;;5026496;28;20041;-66
2022/10/04 00:53:40;;;;;;;15.13;5.97;;;;;;;;;;5025427;28;20033;-66
2022/10/04 00:56:12;;;;;;;13.85;6.68;;;;;;;;;;5027319;28;20103;-66
2022/10/04 00:59:02;;;;;;;15.40;6.93;;;;;;;;;;5027599;28;20027;-66
2022/10/04 01:01:28;;;;;;;19.83;6.38;;;;;;;;;;5026772;28;20076;-66
2022/10/04 01:03:55;;;;;;;14.27;6.50;;;;;;;;;;5026869;28;20033;-66
2022/10/04 01:06:22;;;;;;;16.33;7.25;;;;;;;;;;5044858;28;20106;-66
2022/10/04 01:08:52;;;;;;;12.07;6.32;;;;;;;;;;5035646;28;20036;-66
2022/10/04 01:11:30;;;;;;;15.15;6.80;;;;;;;;;;5026724;28;20025;-66
2022/10/04 01:14:07;;;;;;;13.80;6.35;;;;;;;;;;5026673;28;20036;-66
2022/10/04 01:16:35;;;;;;;11.73;6.15;;;;;;;;;;5027332;28;20033;-67
2022/10/04 01:19:23;;;;;;;14.68;7.07;;;;;;;;;;5008593;28;20065;-66
2022/10/04 01:22:08;;;;;;;15.07;6.60;;;;;;;;;;5024914;28;20531;-66
2022/10/04 01:24:41;;;;;;;13.15;6.05;;;;;;;;;;5007914;28;20073;-67
2022/10/04 01:27:46;;;;;;;11.95;6.43;;;;;;;;;;5008845;28;20041;-66
2022/10/04 01:30:14;;;;;;;13.75;6.93;;;;;;;;;;5009337;28;20045;-66
2022/10/04 01:32:39;;;;;;;13.77;6.28;;;;;;;;;;5027391;28;20599;-66
2022/10/04 01:35:10;;;;;;;17.23;6.90;;;;;;;;;;5046337;28;20028;-66
2022/10/04 01:37:38;;;;;;;13.43;6.63;;;;;;;;;;5046063;28;20040;-66
2022/10/04 01:40:05;;;;;;;14.35;6.50;;;;;;;;;;5045897;28;20060;-66
2022/10/04 01:42:44;;;;;;;17.50;7.20;;;;;;;;;;5043137;28;20913;-66
2022/10/04 01:45:22;;;;;;;16.98;6.70;;;;;;;;;;5046233;28;20044;-66
2022/10/04 01:47:58;;;;;;;19.02;6.60;;;;;;;;;;5045589;28;20029;-66
2022/10/04 01:50:32;;;;;;;11.68;6.65;;;;;;;;;;5032121;28;20056;-66
2022/10/04 01:53:23;;;;;;;15.73;7.80;;;;;;;;;;5062661;28;20107;-66
2022/10/04 01:55:51;;;;;;;16.73;6.93;;;;;;;;;;5066106;28;20087;-66
2022/10/04 01:58:27;;;;;;;20.30;7.38;;;;;;;;;;5065812;28;20032;-66
2022/10/04 02:01:06;;;;;;;17.10;6.45;;;;;;;;;;5065928;28;20652;-66
2022/10/04 02:03:39;;;;;;;22.75;7.20;;;;;;;;;;5066131;28;20087;-66
2022/10/04 02:06:07;;;;;;;16.73;6.57;;;;;;;;;;5058666;28;20033;-67
2022/10/04 02:08:36;;;;;;;15.40;6.43;;;;;;;;;;5063550;28;20041;-66
2022/10/04 02:11:03;;;;;;;12.10;6.53;;;;;;;;;;5066788;28;20063;-67
2022/10/04 02:13:34;;;;;;;13.48;5.70;;;;;;;;;;5044648;28;20037;-66
2022/10/04 02:16:01;;;;;;;20.23;7.05;;;;;;;;;;5056169;28;20032;-66
2022/10/04 02:18:28;;;;;;;13.32;6.75;;;;;;;;;;5065986;28;20039;-66
2022/10/04 02:20:54;;;;;;;16.20;7.05;;;;;;;;;;5047847;28;20064;-67
2022/10/04 02:23:22;;;;;;;16.88;6.78;;;;;;;;;;5066077;28;20058;-66
2022/10/04 02:25:47;;;;;;;12.75;6.15;;;;;;;;;;5065486;28;20025;-66
2022/10/04 02:28:14;;;;;;;17.17;6.43;;;;;;;;;;5065754;28;20066;-66
2022/10/04 02:30:42;;;;;;;17.42;6.90;;;;;;;;;;5047416;28;20041;-66
2022/10/04 02:33:09;;;;;;;14.70;7.00;;;;;;;;;;5041239;28;20060;-66
2022/10/04 02:35:45;;;;;;;14.60;6.55;;;;;;;;;;5045791;28;20461;-66
2022/10/04 02:38:21;;;;;;;17.80;6.90;;;;;;;;;;5027652;28;20095;-67
2022/10/04 02:41:03;;;;;;;15.10;6.20;;;;;;;;;;5046344;28;20506;-66
2022/10/04 02:43:40;;;;;;;12.90;6.57;;;;;;;;;;5045706;28;20044;-66
2022/10/04 02:46:08;;;;;;;14.00;5.93;;;;;;;;;;5045509;28;20417;-66
2022/10/04 02:48:37;;;;;;;10.43;5.45;;;;;;;;;;5045057;28;20490;-67
2022/10/04 02:51:16;;;;;;;13.30;6.18;;;;;;;;;;5045585;28;20060;-66
2022/10/04 02:53:46;;;;;;;16.15;6.75;;;;;;;;;;5045496;28;20044;-66
2022/10/04 02:56:12;;;;;;;15.75;6.15;;;;;;;;;;5027323;28;20032;-67
2022/10/04 02:58:39;;;;;;;14.15;6.65;;;;;;;;;;5046211;28;20469;-66
2022/10/04 03:01:05;;;;;;;12.48;6.03;;;;;;;;;;5030064;28;20565;-66
2022/10/04 03:03:37;;;;;;;14.60;6.32;;;;;;;;;;5031475;28;20123;-66
2022/10/04 03:06:07;;;;;;;18.67;6.50;;;;;;;;;;5049033;28;20064;-66
2022/10/04 03:08:45;;;;;;;18.98;5.68;;;;;;;;;;5048895;28;20116;-66
2022/10/04 03:11:12;;;;;;;15.85;6.30;;;;;;;;;;5048440;28;20037;-66
2022/10/04 03:13:43;;;;;;;11.98;6.28;;;;;;;;;;5049578;28;20035;-67
2022/10/04 03:16:08;;;;;;;20.92;6.55;;;;;;;;;;5048695;28;20129;-66
2022/10/04 03:18:36;;;;;;;16.58;6.78;;;;;;;;;;5030761;28;20116;-66
2022/10/04 03:21:05;;;;;;;12.20;5.53;;;;;;;;;;5030445;28;20033;-66
2022/10/04 03:23:32;;;;;;;18.50;6.47;;;;;;;;;;5028126;28;20049;-66
2022/10/04 03:26:02;;;;;;;16.20;5.50;;;;;;;;;;5031400;28;20095;-67
2022/10/04 03:28:28;;;;;;;13.23;6.18;;;;;;;;;;5048431;28;20037;-66
2022/10/04 03:30:54;;;;;;;12.70;5.57;;;;;;;;;;5030663;28;20068;-66
2022/10/04 03:33:23;;;;;;;15.90;5.65;;;;;;;;;;5066095;28;20059;-66
2022/10/04 03:35:54;;;;;;;10.55;5.25;;;;;;;;;;5068448;28;20046;-66
2022/10/04 03:38:21;;;;;;;14.40;5.72;;;;;;;;;;5068497;28;20032;-66
2022/10/04 03:40:52;;;;;;;12.35;4.75;;;;;;;;;;5049683;28;20549;-66
2022/10/04 03:43:19;;;;;;;15.40;5.68;;;;;;;;;;5048451;28;20037;-66
2022/10/04 03:45:45;;;;;;;10.63;4.63;;;;;;;;;;5042956;28;20114;-66
2022/10/04 03:48:13;;;;;;;13.63;4.85;;;;;;;;;;5068335;28;20060;-66
2022/10/04 03:50:45;;;;;;;8.50;4.43;;;;;;;;;;5068129;28;20032;-66
2022/10/04 03:53:22;;;;;;;14.52;5.30;;;;;;;;;;5068439;28;20558;-66
2022/10/04 03:55:47;;;;;;;10.60;4.85;;;;;;;;;;5050405;28;20060;-66
2022/10/04 03:58:16;;;;;;;13.63;4.93;;;;;;;;;;5048429;28;20476;-66
2022/10/04 04:00:55;;;;;;;11.23;5.20;;;;;;;;;;5029970;28;20480;-66
2022/10/04 04:03:21;;;;;;;13.90;5.47;;;;;;;;;;5048287;28;20037;-67
2022/10/04 04:05:53;;;;;;;9.75;4.50;;;;;;;;;;5049874;28;20040;-66
2022/10/04 04:08:27;;;;;;;11.63;4.80;;;;;;;;;;5045004;28;20017;-66
2022/10/04 04:10:58;;;;;;;13.05;5.60;;;;;;;;;;5062512;28;20436;-66
2022/10/04 04:13:43;;;;;;;13.98;5.43;;;;;;;;;;5067555;28;20040;-66
2022/10/04 04:16:09;;;;;;;10.43;4.80;;;;;;;;;;5033387;28;20112;-67
2022/10/04 04:18:38;;;;;;;8.50;3.85;;;;;;;;;;5047797;28;20033;-66
2022/10/04 04:21:05;;;;;;;11.75;4.72;;;;;;;;;;5047202;28;20116;-66
2022/10/04 04:23:49;;;;;;;8.95;4.53;;;;;;;;;;5047399;28;20402;-66
2022/10/04 04:26:35;;;;;;;7.85;4.18;;;;;;;;;;5029570;28;20056;-66
2022/10/04 04:29:09;;;;;;;12.10;4.72;;;;;;;;;;5047967;28;20396;-67
2022/10/04 04:31:47;;;;;;;13.77;4.47;;;;;;;;;;5047349;28;20045;-67
2022/10/04 04:34:21;;;;;;;16.77;5.35;;;;;;;;;;5065821;28;20028;-66
2022/10/04 04:36:47;;;;;;;18.38;4.82;;;;;;;;;;5067089;28;20056;-66
2022/10/04 04:39:33;;;;;;;14.02;5.55;;;;;;;;;;5061117;28;20076;-66
2022/10/04 04:42:01;;;;;;;10.98;4.60;;;;;;;;;;5046935;28;20044;-66
2022/10/04 04:44:27;;;;;;;10.48;5.32;;;;;;;;;;5047175;28;20032;-66
2022/10/04 04:46:55;;;;;;;13.23;4.57;;;;;;;;;;5045294;28;20036;-66
2022/10/04 04:49:22;;;;;;;13.82;4.63;;;;;;;;;;5036756;28;20510;-67
2022/10/04 04:51:50;;;;;;;11.85;4.65;;;;;;;;;;5029308;28;20577;-66
2022/10/04 04:54:17;;;;;;;11.07;4.85;;;;;;;;;;5047096;28;20040;-66
2022/10/04 04:56:43;;;;;;;9.82;4.47;;;;;;;;;;5047054;28;20037;-67
2022/10/04 04:59:10;;;;;;;9.57;4.68;;;;;;;;;;5047188;28;20104;-66
2022/10/04 05:01:43;;;;;;;11.32;5.00;;;;;;;;;;5047430;28;20108;-66
2022/10/04 05:04:11;;;;;;;7.50;3.90;;;;;;;;;;5047039;28;20037;-66
2022/10/04 05:06:38;;;;;;;9.38;4.10;;;;;;;;;;5046394;28;20128;-66
2022/10/04 05:09:04;;;;;;;13.88;5.18;;;;;;;;;;5046791;28;20167;-66
2022/10/04 05:11:38;;;;;;;12.18;4.93;;;;;;;;;;5028403;28;20052;-66
2022/10/04 05:14:07;;;;;;;10.98;5.15;;;;;;;;;;5047482;28;20898;-67
2022/10/04 05:16:41;;;;;;;11.38;4.90;;;;;;;;;;5041827;28;20482;-67
2022/10/04 05:19:18;;;;;;;17.77;5.22;;;;;;;;;;5066796;28;20693;-66
2022/10/04 05:21:47;;;;;;;12.60;5.65;;;;;;;;;;5066480;28;20066;-66
2022/10/04 05:24:21;;;;;;;18.27;5.45;;;;;;;;;;5065060;28;20052;-66
2022/10/04 05:26:50;;;;;;;;;;;;;;;;;;5067080;28;20055;-66
2022/10/04 05:29:20;;;;;;;10.35;5.25;;;;;;;;;;5058769;28;19946;-66
2022/10/04 05:32:28;;;;;;;10.43;4.35;;;;;;;;;;5027408;28;20029;-66
2022/10/04 05:34:53;;;;;;;11.25;4.40;;;;;;;;;;5027297;28;20054;-66
2022/10/04 05:38:03;;;;;;;15.50;4.70;;;;;;;;;;5025850;28;20034;-66
2022/10/04 05:40:41;;;;;;;11.55;4.85;;;;;;;;;;5003128;28;20041;-66
2022/10/04 05:43:24;;;;;;;12.48;5.22;;;;;;;;;;5042504;28;20484;-66
2022/10/04 05:46:09;;;;;;;14.30;4.50;;;;;;;;;;5065324;28;20097;-66
2022/10/04 05:48:35;;;;;;;10.15;5.00;;;;;;;;;;5065087;28;20139;-66
2022/10/04 05:51:00;;;;;;;12.00;4.78;;;;;;;;;;5065349;28;20037;-66
2022/10/04 05:53:32;;;;;;;11.68;5.13;;;;;;;;;;5064901;28;20052;-66
2022/10/04 05:56:53;;;;;;;11.15;4.95;;;;;;;;;;5034750;28;20028;-66
2022/10/04 05:59:34;;;;;;;13.60;6.07;;;;;;;;;;4959989;28;20128;-67
2022/10/04 06:02:13;;;;;;;9.88;5.05;;;;;;;;;;5035713;28;20705;-66
2022/10/04 06:04:59;;;;;;;11.82;5.25;;;;;;;;;;5044916;28;20079;-66
2022/10/04 06:07:31;;;;;;;11.52;5.15;;;;;;;;;;5033708;28;20086;-66
2022/10/04 06:10:10;;;;;;;14.40;6.00;;;;;;;;;;5045015;28;20441;-66
2022/10/04 06:12:50;;;;;;;12.23;5.38;;;;;;;;;;5046076;28;20115;-66
2022/10/04 06:15:44;;;;;;;11.68;4.68;;;;;;;;;;5038266;28;20044;-66
2022/10/04 06:18:28;;;;;;;14.68;5.90;;;;;;;;;;5045699;28;20676;-66
2022/10/04 06:21:23;;;;;;;11.10;4.80;;;;;;;;;;5045295;28;20124;-66
2022/10/04 06:24:06;;;;;;;10.93;4.97;;;;;;;;;;5038844;28;20125;-66
2022/10/04 06:26:42;;;;;;;9.93;5.10;;;;;;;;;;5038328;28;20087;-66
2022/10/04 06:29:13;;;;;;;13.90;5.43;;;;;;;;;;5042887;28;20025;-66
2022/10/04 06:32:07;;;;;;;13.68;5.05;;;;;;;;;;5033014;28;20014;-66
2022/10/04 06:34:52;;;;;;;16.92;4.93;;;;;;;;;;5048752;28;20518;-66
2022/10/04 06:37:55;;;;;;;12.15;4.95;;;;;;;;;;5047970;28;20039;-66
2022/10/04 06:40:40;;;;;;;13.35;5.40;;;;;;;;;;5044568;28;20033;-66
2022/10/04 06:43:34;;;;;;;11.52;5.45;;;;;;;;;;5047816;28;20033;-67
2022/10/04 06:46:14;;;;;;;13.65;5.03;;;;;;;;;;5045684;28;20786;-66
2022/10/04 06:49:01;;;;;;;13.90;4.95;;;;;;;;;;5045762;28;20059;-67
2022/10/04 06:51:55;;;;;;;10.90;5.18;;;;;;;;;;5042204;28;20060;-66
2022/10/04 06:54:45;;;;;;;12.02;5.00;;;;;;;;;;5011662;28;20064;-66
2022/10/04 06:58:07;;;;;;;10.57;4.80;;;;;;;;;;5025796;28;20136;-67
2022/10/04 07:00:51;;;;;;;10.10;4.43;;;;;;;;;;4980600;28;20046;-66
2022/10/04 07:03:30;;;;;;;10.98;4.88;;;;;;;;;;5057759;28;20040;-66
2022/10/04 07:06:03;;;;;;;11.68;4.70;;;;;;;;;;5032901;28;20037;-66
2022/10/04 07:08:32;;;;;;;10.85;4.80;;;;;;;;;;5045897;28;20037;-67
2022/10/04 07:11:29;;;;;;;10.80;4.95;;;;;;;;;;5028664;28;20722;-66
2022/10/04 07:14:13;;;;;;;15.38;4.70;;;;;;;;;;5028455;28;20061;-66
2022/10/04 07:16:43;;;;;;;12.32;4.43;;;;;;;;;;5045026;28;20041;-66
2022/10/04 07:19:30;;;;;;;8.63;5.25;;;;;;;;;;5042522;28;20039;-66
2022/10/04 07:22:04;;;;;;;13.38;5.10;;;;;;;;;;5030159;28;20430;-66
2022/10/04 07:24:38;;;;;;;12.57;5.07;;;;;;;;;;5047949;28;20040;-66
2022/10/04 07:27:09;;;;;;;15.60;4.97;;;;;;;;;;5048088;28;20239;-66
2022/10/04 07:29:41;;;;;;;12.18;5.18;;;;;;;;;;5048231;28;20477;-66
2022/10/04 07:32:21;;;;;;;10.52;4.70;;;;;;;;;;5047559;28;20124;-66
2022/10/04 07:35:03;;;;;;;14.13;5.63;;;;;;;;;;5047896;28;20075;-67
2022/10/04 07:37:33;;;;;;;13.25;3.65;;;;;;;;;;5027440;28;20777;-66
2022/10/04 07:40:07;;;;;;;12.15;4.75;;;;;;;;;;5041723;28;20028;-67
2022/10/04 07:42:41;;;;;;;11.13;5.25;;;;;;;;;;5038732;28;20135;-67
2022/10/04 07:45:20;;;;;;;11.90;5.30;;;;;;;;;;5046486;28;20040;-66
2022/10/04 07:47:46;;;;;;;9.60;4.90;;;;;;;;;;5044404;28;20557;-67
2022/10/04 07:50:27;;;;;;;9.60;4.32;;;;;;;;;;5039507;28;20025;-67
2022/10/04 07:53:02;;;;;;;8.07;4.22;;;;;;;;;;5047123;28;20761;-67
2022/10/04 07:55:41;;;;;;;12.68;5.53;;;;;;;;;;5046174;28;20090;-66
2022/10/04 07:58:32;;;;;;;16.02;4.85;;;;;;;;;;5046505;28;20048;-66
2022/10/04 08:01:16;;;;;;;11.90;5.47;;;;;;;;;;5042860;28;20087;-67
2022/10/04 08:03:58;;;;;;;8.73;4.47;;;;;;;;;;5046914;28;20033;-67
2022/10/04 08:06:51;;;;;;;12.80;5.20;;;;;;;;;;5047672;28;20128;-67
2022/10/04 08:09:35;;;;;;;10.40;5.00;;;;;;;;;;5017243;28;20125;-67
2022/10/04 08:12:16;;;;;;;13.20;5.13;;;;;;;;;;5037973;28;20178;-67
2022/10/04 08:15:22;;;;;;;10.20;5.55;;;;;;;;;;5024391;28;20036;-67
2022/10/04 08:18:09;;;;;;;14.07;5.88;;;;;;;;;;4996380;28;20096;-67
2022/10/04 08:20:57;;;;;;;19.30;5.60;;;;;;;;;;5026415;28;20120;-66
2022/10/04 08:23:35;;;;;;;13.90;5.88;;;;;;;;;;5040452;28;20437;-66
2022/10/04 08:26:14;;;;;;;16.52;5.65;;;;;;;;;;5045318;28;20025;-69
2022/10/04 08:32:10;;;;;;;11.93;5.32;;;;;;;;;;5043920;28;20047;-66
2022/10/04 08:35:12;;;;;;;12.57;5.38;;;;;;;;;;5045125;28;20038;-65
2022/10/04 08:37:46;;;;;;;16.63;6.05;;;;;;;;;;5042603;28;20186;-65
2022/10/04 08:40:48;;;;;;;11.25;5.30;;;;;;;;;;5045880;28;20060;-65
2022/10/04 08:43:52;;;;;;;15.30;6.30;;;;;;;;;;5046102;28;20123;-66
2022/10/04 08:46:57;;;;;;;18.63;5.88;;;;;;;;;;5065465;28;20039;-65
2022/10/04 08:50:07;;;;;;;8.30;4.30;;;;;;;;;;5047795;28;20037;-65
2022/10/04 08:52:48;;;;;;;13.98;6.43;;;;;;;;;;5030287;28;20565;-65
2022/10/04 08:55:19;;;;;;;13.32;6.35;;;;;;;;;;5018633;28;20025;-69
2022/10/04 08:58:11;;;;;;;17.45;6.38;;;;;;;;;;5036699;28;20658;-66
2022/10/04 09:01:05;;;;;;;16.50;6.97;;;;;;;;;;5019987;28;20055;-67
2022/10/04 09:03:39;;;;;;;18.08;6.68;;;;;;;;;;5041178;28;20029;-67
2022/10/04 09:06:17;;;;;;;17.58;6.55;;;;;;;;;;5043575;28;20033;-66
2022/10/04 09:09:13;;;;;;;16.75;6.43;;;;;;;;;;5045851;28;20041;-66
2022/10/04 09:12:05;;;;;;;17.60;6.10;;;;;;;;;;5027999;28;20584;-66
2022/10/04 09:15:01;;;;;;;14.98;6.43;;;;;;;;;;5045660;28;20025;-66
2022/10/04 09:17:45;;;;;;;17.50;7.15;;;;;;;;;;5027635;28;20041;-66
2022/10/04 09:20:32;;;;;;;16.45;6.68;;;;;;;;;;5045696;28;20431;-66
2022/10/04 09:23:37;;;;;;;12.57;6.40;;;;;;;;;;5030902;28;20100;-66
2022/10/04 09:26:40;;;;;;;15.52;5.93;;;;;;;;;;5025375;28;20068;-65
2022/10/04 09:29:40;;;;;;;14.20;6.25;;;;;;;;;;5037445;28;20499;-65
2022/10/04 09:32:28;;;;;;;12.80;5.47;;;;;;;;;;5029568;28;20062;-65
2022/10/04 09:35:15;;;;;;;13.63;6.28;;;;;;;;;;5066404;28;20059;-66
2022/10/04 09:38:09;;;;;;;20.38;6.40;;;;;;;;;;5038390;28;20045;-66
2022/10/04 09:41:02;;;;;;;21.80;6.15;;;;;;;;;;5043151;28;20040;-65
2022/10/04 09:44:06;;;;;;;11.60;5.25;;;;;;;;;;5038402;28;20120;-65
2022/10/04 09:47:09;;;;;;;11.27;6.00;;;;;;;;;;5038734;28;20540;-65
2022/10/04 09:50:04;;;;;;;21.98;6.15;;;;;;;;;;5041990;28;20051;-65
2022/10/04 09:52:40;;;;;;;20.95;5.30;;;;;;;;;;5024934;28;20125;-65
2022/10/04 09:55:11;;;;;;;14.23;5.15;;;;;;;;;;5036467;28;20041;-65
2022/10/04 09:58:06;;;;;;;10.20;4.88;;;;;;;;;;5024386;28;20544;-65
2022/10/04 10:00:57;;;;;;;18.75;5.15;;;;;;;;;;5038809;28;20048;-65
2022/10/04 10:04:01;;;;;;;12.73;5.15;;;;;;;;;;5035686;28;20553;-66
2022/10/04 10:06:43;;;;;;;12.20;5.82;;;;;;;;;;5041723;28;20039;-66
2022/10/04 10:15:23;;;;;;;11.85;4.82;;;;;;;;;;5039960;28;20040;-66
2022/10/04 10:18:04;;;;;;;12.10;4.82;;;;;;;;;;5049272;28;20037;-66
2022/10/04 10:20:42;;;;;;;10.23;5.05;;;;;;;;;;5049683;28;20064;-66
2022/10/04 10:23:42;;;;;;;7.05;4.55;;;;;;;;;;5048970;28;20016;-65
2022/10/04 10:26:17;;;;;;;7.50;4.38;;;;;;;;;;5049353;28;20017;-66
2022/10/04 10:29:16;;;;;;;9.38;4.95;;;;;;;;;;5049798;28;20025;-66
2022/10/04 10:32:14;;;;;;;10.40;5.05;;;;;;;;;;5049536;28;20567;-66
2022/10/04 10:34:54;;;;;;;12.93;4.65;;;;;;;;;;5015394;28;20127;-66
2022/10/04 10:37:51;;;;;;;9.15;5.03;;;;;;;;;;5025983;28;20391;-67
2022/10/04 10:40:16;;;;;;;13.02;4.82;;;;;;;;;;5035520;28;20603;-68
2022/10/04 10:43:14;;;;;;;10.50;4.68;;;;;;;;;;5027470;28;20041;-68
2022/10/04 10:46:04;;;;;;;7.40;4.25;;;;;;;;;;5035715;28;20067;-68
2022/10/04 10:48:40;;;;;;;11.02;5.10;;;;;;;;;;5028672;28;20025;-68
2022/10/04 10:51:30;;;;;;;8.75;4.53;;;;;;;;;;5034339;28;20042;-68
2022/10/04 10:53:55;;;;;;;12.35;5.00;;;;;;;;;;5039558;28;20037;-68
2022/10/04 10:56:42;;;;;;;12.93;4.72;;;;;;;;;;5046748;28;20043;-68
2022/10/04 10:59:26;;;;;;;10.13;4.55;;;;;;;;;;5032812;28;20415;-67
2022/10/04 11:02:22;;;;;;;13.63;5.07;;;;;;;;;;5027534;28;20064;-68
2022/10/04 11:05:10;;;;;;;10.60;4.18;;;;;;;;;;5027094;28;20049;-68
2022/10/04 11:07:50;;;;;;;7.55;3.85;;;;;;;;;;5027934;28;20156;-68
2022/10/04 11:10:37;;;;;;;8.85;4.60;;;;;;;;;;5056433;28;20537;-68
2022/10/04 11:13:44;;;;;;;9.88;4.10;;;;;;;;;;5054189;28;20057;-68
2022/10/04 11:16:28;;;;;;;11.60;4.63;;;;;;;;;;5066533;28;20047;-68
2022/10/04 11:19:22;;;;;;;10.32;4.53;;;;;;;;;;5067489;28;20040;-68
2022/10/04 11:22:18;;;;;;;11.02;4.43;;;;;;;;;;5046512;28;20091;-68
2022/10/04 11:24:55;;;;;;;9.60;4.82;;;;;;;;;;5047814;28;20040;-68
2022/10/04 11:27:42;;;;;;;11.40;4.80;;;;;;;;;;5048545;28;20040;-68
2022/10/04 11:30:25;;;;;;;7.38;4.30;;;;;;;;;;5047672;28;20048;-67
2022/10/04 11:33:02;;;;;;;8.85;4.30;;;;;;;;;;5030834;28;20040;-67
2022/10/04 11:35:50;;;;;;;11.38;4.88;;;;;;;;;;5034700;28;20048;-68
2022/10/04 11:38:48;;;;;;;11.98;4.75;;;;;;;;;;5030222;28;20510;-68
2022/10/04 11:41:38;;;;;;;9.82;4.03;;;;;;;;;;5042711;28;20398;-68
2022/10/04 11:44:51;;;;;;;11.93;4.22;;;;;;;;;;5041906;28;20012;-67
2022/10/04 11:47:53;;;;;;;11.30;4.30;;;;;;;;;;4983751;28;20053;-67
2022/10/04 11:50:56;;;;;;;8.52;4.28;;;;;;;;;;5036678;28;20021;-67
2022/10/04 11:53:43;;;;;;;10.25;4.65;;;;;;;;;;5027265;28;20491;-67
2022/10/04 11:56:19;;;;;;;8.95;4.03;;;;;;;;;;5027380;28;20506;-67
2022/10/04 11:59:08;;;;;;;7.90;4.18;;;;;;;;;;5031428;28;20036;-67
2022/10/04 12:02:17;;;;;;;6.63;3.33;;;;;;;;;;5015991;28;20041;-67
2022/10/04 12:04:43;;;;;;;8.05;4.22;;;;;;;;;;4996412;28;20055;-67
2022/10/04 12:07:46;;;;;;;9.48;5.18;;;;;;;;;;5025530;28;20120;-67
2022/10/04 12:10:36;;;;;;;9.77;4.55;;;;;;;;;;5025803;28;20049;-68
2022/10/04 12:13:02;;;;;;;6.38;4.22;;;;;;;;;;5027097;28;20046;-67
2022/10/04 12:16:03;;;;;;;7.25;3.95;;;;;;;;;;5025412;28;20552;-68
2022/10/04 12:18:49;;;;;;;10.32;3.65;;;;;;;;;;5027404;28;20033;-68
2022/10/04 12:21:38;;;;;;;6.72;3.85;;;;;;;;;;5031606;28;20462;-67
2022/10/04 12:24:32;;;;;;;10.73;4.93;;;;;;;;;;5024940;28;20070;-67
2022/10/04 12:27:20;;;;;;;10.23;4.23;;;;;;;;;;5026230;28;20029;-68
2022/10/04 12:30:01;;;;;;;8.68;4.47;;;;;;;;;;5032494;28;20057;-68
2022/10/04 12:32:48;;;;;;;11.00;4.75;;;;;;;;;;5047878;28;20068;-68
2022/10/04 12:35:52;;;;;;;8.73;4.57;;;;;;;;;;5065974;28;20101;-67
2022/10/04 12:38:47;;;;;;;6.40;3.40;;;;;;;;;;5047184;28;20634;-68
2022/10/04 12:41:27;;;;;;;8.02;3.47;;;;;;;;;;4971822;28;20034;-67
2022/10/04 12:43:59;;;;;;;7.85;3.92;;;;;;;;;;5026489;28;20029;-68
2022/10/04 12:46:31;;;;;;;6.55;4.05;;;;;;;;;;5026273;28;20048;-68
2022/10/04 12:49:05;;;;;;;9.07;3.92;;;;;;;;;;5024636;28;20041;-68
2022/10/04 12:52:12;;;;;;;6.10;3.47;;;;;;;;;;5026049;28;20065;-68
2022/10/04 12:55:17;;;;;;;11.93;3.63;;;;;;;;;;4993269;28;20738;-67
2022/10/04 12:58:01;;;;;;;6.90;4.03;;;;;;;;;;5025609;28;20037;-67
2022/10/04 13:00:30;;;;;;;8.25;2.92;;;;;;;;;;5025432;28;20029;-67
2022/10/04 13:03:30;;;;;;;6.60;3.30;;;;;;;;;;5025573;28;20419;-68
2022/10/04 13:06:10;;;;;;;7.15;3.08;;;;;;;;;;5064916;28;20516;-68
2022/10/04 13:08:50;;;;;;;4.25;2.90;;;;;;;;;;5063912;28;20505;-68
2022/10/04 13:11:28;;;;;;;4.18;2.67;;;;;;;;;;5064348;28;20106;-68
2022/10/04 13:14:19;;;;;;;7.70;2.88;;;;;;;;;;5047690;28;20057;-68
2022/10/04 13:17:08;;;;;;;4.10;2.50;;;;;;;;;;5045415;28;20048;-67
2022/10/04 13:19:52;;;;;;;6.78;2.75;;;;;;;;;;5045387;28;20041;-68
2022/10/04 13:22:26;;;;;;;7.43;2.38;;;;;;;;;;5044983;28;20036;-67
2022/10/04 13:25:20;;;;;;;7.40;2.30;;;;;;;;;;5044668;28;20426;-68
2022/10/04 13:28:03;;;;;;;6.57;2.60;;;;;;;;;;5042561;28;20065;-67
2022/10/04 13:30:41;;;;;;;4.35;2.58;;;;;;;;;;5026252;28;20545;-68
2022/10/04 13:33:10;;;;;;;4.28;2.50;;;;;;;;;;5044275;28;20045;-68
2022/10/04 13:35:46;;;;;;;7.22;2.47;;;;;;;;;;5040525;28;20041;-68
2022/10/04 13:38:26;;;;;;;3.90;2.40;;;;;;;;;;5044790;28;20059;-68
2022/10/04 13:41:06;;;;;;;3.80;2.50;;;;;;;;;;5045005;28;20086;-67
2022/10/04 13:44:16;;;;;;;6.50;2.20;;;;;;;;;;5042664;28;20608;-68
2022/10/04 13:47:26;;;;;;;3.83;2.42;;;;;;;;;;5044242;28;20059;-68
2022/10/04 13:50:03;;;;;;;2.50;2.00;;;;;;;;;;4989179;28;20062;-68
2022/10/04 13:59:03;;;;;;;3.90;2.40;;;;;;;;;;5043822;28;20095;-68
2022/10/04 14:01:43;;;;;;;5.03;2.25;;;;;;;;;;5044059;28;20565;-68
2022/10/04 14:04:33;;;;;;;5.25;2.40;;;;;;;;;;5042501;28;20043;-68
2022/10/04 14:07:18;;;;;;;4.95;2.30;;;;;;;;;;5043940;28;20037;-68
2022/10/04 14:10:05;;;;;;;9.65;2.53;;;;;;;;;;5043745;28;20042;-67
2022/10/04 14:13:04;;;;;;;6.55;2.85;;;;;;;;;;5043534;28;20053;-67
2022/10/04 14:15:45;;;;;;;5.40;2.90;;;;;;;;;;5022799;28;20045;-68
2022/10/04 14:18:19;;;;;;;6.60;2.38;;;;;;;;;;5023941;28;20044;-68
2022/10/04 14:21:20;;;;;;;3.42;2.40;;;;;;;;;;5024445;28;20168;-67
2022/10/04 14:24:05;;;;;;;3.75;2.60;;;;;;;;;;4988087;28;20071;-68
2022/10/04 14:26:42;;;;;;;5.93;2.80;;;;;;;;;;5023915;28;20041;-68
2022/10/04 14:29:27;;;;;;;6.75;2.95;;;;;;;;;;5022028;28;20098;-68
2022/10/04 14:32:04;;;;;;;4.50;2.35;;;;;;;;;;5022655;28;20091;-68
2022/10/04 14:34:52;;;;;;;6.30;2.95;;;;;;;;;;5037101;28;20038;-68
2022/10/04 14:37:26;;;;;;;7.05;2.90;;;;;;;;;;5048570;28;20044;-68
2022/10/04 14:40:16;;;;;;;4.30;2.70;;;;;;;;;;5053430;28;20033;-68
2022/10/04 14:42:57;;;;;;;8.45;2.53;;;;;;;;;;5045437;28;20106;-68
2022/10/04 14:45:36;;;;;;;4.72;2.40;;;;;;;;;;5043736;28;20049;-68
2022/10/04 14:49:02;;;;;;;5.53;2.00;;;;;;;;;;5045297;28;20033;-68
2022/10/04 14:52:03;;;;;;;2.67;2.15;;;;;;;;;;4983398;28;20182;-68
2022/10/04 14:54:28;;;;;;;3.85;2.17;;;;;;;;;;5025494;28;20741;-68
2022/10/04 14:57:22;;;;;;;4.90;2.30;;;;;;;;;;5026848;28;20033;-68
2022/10/04 14:59:53;;;;;;;;;;;;;;;;;;5035841;28;20041;-68
2022/10/04 15:02:31;;;;;;;4.35;2.10;;;;;;;;;;5028284;28;19948;-67
2022/10/04 15:05:05;;;;;;;5.18;2.65;;;;;;;;;;5029566;28;20037;-68
2022/10/04 15:07:30;;;;;;;4.85;2.70;;;;;;;;;;5027448;28;20088;-67
2022/10/04 15:09:58;;;;;;;5.32;2.30;;;;;;;;;;5028130;28;20045;-67
2022/10/04 15:12:30;;;;;;;3.05;2.03;;;;;;;;;;5028393;28;20067;-68
2022/10/04 15:15:06;;;;;;;4.82;2.88;;;;;;;;;;5045333;28;20037;-68
2022/10/04 15:17:36;;;;;;;5.13;2.33;;;;;;;;;;5045094;28;20043;-68
2022/10/04 15:20:21;;;;;;;4.05;2.53;;;;;;;;;;5030008;28;20032;-68
2022/10/04 15:23:10;;;;;;;3.92;2.42;;;;;;;;;;5048378;28;20037;-68
2022/10/04 15:25:39;;;;;;;3.88;2.47;;;;;;;;;;5048421;28;20048;-68
2022/10/04 15:28:34;;;;;;;5.57;2.40;;;;;;;;;;5048314;28;20033;-68
2022/10/04 15:31:15;;;;;;;3.88;2.10;;;;;;;;;;5048395;28;20698;-68
2022/10/04 15:34:01;;;;;;;5.40;2.65;;;;;;;;;;5047601;28;20044;-67
2022/10/04 15:36:36;;;;;;;4.38;2.70;;;;;;;;;;5048448;28;20044;-67
2022/10/04 15:39:25;;;;;;;7.30;2.70;;;;;;;;;;5047990;28;20037;-68
2022/10/04 15:42:12;;;;;;;6.00;3.10;;;;;;;;;;5047367;28;20033;-68
2022/10/04 15:44:43;;;;;;;5.30;2.60;;;;;;;;;;5049124;28;20062;-68
2022/10/04 15:47:19;;;;;;;5.65;2.90;;;;;;;;;;5048974;28;20029;-68
2022/10/04 15:50:22;;;;;;;4.13;2.90;;;;;;;;;;5047913;28;20053;-68
2022/10/04 15:53:12;;;;;;;3.92;2.70;;;;;;;;;;5052946;28;20113;-67
2022/10/04 15:55:41;;;;;;;6.60;3.35;;;;;;;;;;5049507;28;20044;-67
2022/10/04 15:58:44;;;;;;;6.88;3.67;;;;;;;;;;5067140;28;20129;-68
2022/10/04 16:01:34;;;;;;;5.90;3.60;;;;;;;;;;5067408;28;20596;-67
2022/10/04 16:04:15;;;;;;;6.32;3.70;;;;;;;;;;5049137;28;20109;-68
2022/10/04 16:06:59;;;;;;;8.65;3.03;;;;;;;;;;5066877;28;20739;-68
2022/10/04 16:09:49;;;;;;;8.60;3.55;;;;;;;;;;5067207;28;20093;-68
2022/10/04 16:12:51;;;;;;;6.30;3.45;;;;;;;;;;5067212;28;20079;-68